Adrian, Illinois
Current Conditions -  °F | °C
As of 5:35 PM on Saturday 22 Nov 2014 (Local Time) from KFSW Reporting Station
NA  
Wind Chill: 14°   Ceiling: NA
Heat Index: 14°   Visibility: 10mi
Dew Point: 11°   Wind: 9mph
Humidity: 82%   Direction: 170°S
Pressure: 29.83"   Gusts: NA
Location:  40.52°N, 91.17°W
Report Text: KFSW 222335Z AUTO 17008KT 10SM 14/11 A2983 RMK AO2
Loading
Personal Weather Stations






























Interactive Weather Map New forecast layout! Learn more

10-Day Weather Forecast

Advertisements
Track Severe Weather on mobile